Terminal Aerodrome Forecast
Issued by NWS Charleston, WV

Home | Current Version | Previous Version | Text Only | Print | Product List | Glossary On
Versions: 1 2 3 4 5 6 7 8 9 10 11 12 13 14 15 16 17 18 19 20 21 22
000
FTUS41 KRLX 032348
TAFCRW
TAF
KCRW 032348Z 0400/0424 VRB03KT 6SM HZ SCT070
     FM040500 VRB03KT 4SM BR SCT100
     FM040800 00000KT 2SM BR SCT001
     FM041300 00000KT 4SM BR SCT015
     FM041500 VRB03KT P6SM BKN035
     FM041700 VRB03KT P6SM VCTS BKN040CB=

USA.gov is the U.S. government's official web portal to all federal, state and local government web resources and services.